Time;durP1;ratioP1;P1;durP2;ratioP2;P2;SDS_P1;SDS_P2;PMS_P1;PMS_P2;Temp;Humidity;BMP_temperature;BMP_pressure;BME280_temperature;BME280_humidity;BME280_pressure;Samples;Min_cycle;Max_cycle;Signal;HPM_P1;HPM_P2
2022/01/09 00:00:34;;;;;;;12.25;7.72;;;-5.50;99.90;;;;;;5093796;28;20179;-77
2022/01/09 00:03:00;;;;;;;7.95;5.97;;;-5.70;99.90;;;;;;5111907;28;20197;-79
2022/01/09 00:05:26;;;;;;;13.63;5.90;;;-5.80;99.90;;;;;;5111994;28;20207;-76
2022/01/09 00:07:53;;;;;;;11.25;5.28;;;-5.80;99.90;;;;;;5100622;28;20191;-78
2022/01/09 00:10:20;;;;;;;8.77;6.13;;;-5.80;99.90;;;;;;5113860;28;20175;-76
2022/01/09 00:12:46;;;;;;;10.82;5.35;;;-5.80;99.90;;;;;;5127403;28;20256;-77
2022/01/09 00:15:13;;;;;;;8.43;5.78;;;-5.80;99.90;;;;;;5111782;28;20207;-77
2022/01/09 00:17:39;;;;;;;8.73;5.43;;;-5.90;99.90;;;;;;5112051;28;20214;-78
2022/01/09 00:20:07;;;;;;;7.45;4.82;;;-6.00;99.90;;;;;;5112787;28;20200;-77
2022/01/09 00:22:51;;;;;;;9.57;6.53;;;-5.90;99.90;;;;;;5112279;28;20173;-77
2022/01/09 00:25:22;;;;;;;8.60;4.70;;;-6.00;99.90;;;;;;5131694;28;20674;-76
2022/01/09 00:27:49;;;;;;;9.48;5.50;;;-5.80;99.90;;;;;;5131591;28;20211;-78
2022/01/09 00:30:18;;;;;;;10.18;4.65;;;-5.70;99.90;;;;;;5113173;28;20174;-78
2022/01/09 00:32:45;;;;;;;12.25;6.28;;;-5.70;99.90;;;;;;5113467;28;20181;-77
2022/01/09 00:35:12;;;;;;;11.75;6.90;;;-5.60;99.90;;;;;;5131897;28;20183;-76
2022/01/09 00:37:38;;;;;;;14.10;6.63;;;-5.60;99.90;;;;;;5131726;28;20222;-78
2022/01/09 00:40:06;;;;;;;8.65;5.97;;;-5.50;99.90;;;;;;5131057;28;20182;-77
2022/01/09 00:42:32;;;;;;;12.13;5.70;;;-5.40;99.90;;;;;;5131748;28;20158;-78
2022/01/09 00:44:58;;;;;;;9.65;5.15;;;-5.40;99.90;;;;;;5113194;28;20265;-77
2022/01/09 00:47:24;;;;;;;11.55;4.90;;;-5.40;99.90;;;;;;5131401;28;20237;-77
2022/01/09 00:49:50;;;;;;;10.93;6.07;;;-5.40;99.90;;;;;;5130979;28;20159;-77
2022/01/09 00:52:16;;;;;;;10.43;5.25;;;-5.40;99.90;;;;;;5131482;28;20221;-76
2022/01/09 00:54:42;;;;;;;9.98;4.90;;;-5.40;99.90;;;;;;5112455;28;20190;-76
2022/01/09 00:57:08;;;;;;;12.48;6.90;;;-5.30;99.90;;;;;;5112821;28;20216;-76
2022/01/09 00:59:34;;;;;;;12.00;6.07;;;-5.20;99.90;;;;;;5112047;28;20675;-77
2022/01/09 01:02:00;;;;;;;10.85;5.22;;;-5.20;99.90;;;;;;5131319;28;20647;-76
2022/01/09 01:04:25;;;;;;;10.60;6.13;;;-5.10;99.90;;;;;;5131141;28;20178;-77
2022/01/09 01:06:51;;;;;;;9.88;5.80;;;-4.90;99.90;;;;;;5131192;28;20191;-76
2022/01/09 01:09:20;;;;;;;10.43;5.18;;;-4.90;99.90;;;;;;5131195;28;20155;-77
2022/01/09 01:11:48;;;;;;;9.30;6.10;;;-4.90;99.90;;;;;;5130558;28;20242;-77
2022/01/09 01:14:14;;;;;;;10.27;5.55;;;-4.90;99.90;;;;;;5112697;28;20246;-76
2022/01/09 01:16:40;;;;;;;10.95;5.15;;;-4.90;99.90;;;;;;5130918;28;20190;-77
2022/01/09 01:19:06;;;;;;;11.80;6.32;;;-4.80;99.90;;;;;;5131034;28;20185;-77
2022/01/09 01:21:33;;;;;;;10.68;6.03;;;-4.80;99.90;;;;;;5130258;28;20159;-77
2022/01/09 01:23:59;;;;;;;7.88;5.07;;;-4.80;99.90;;;;;;5112652;28;20167;-77
2022/01/09 01:26:25;;;;;;;8.40;5.18;;;-4.70;99.90;;;;;;5130658;28;20182;-78
2022/01/09 01:28:51;;;;;;;11.27;5.93;;;-4.70;99.90;;;;;;5112384;28;20194;-77
2022/01/09 01:31:17;;;;;;;9.05;4.00;;;-4.70;99.90;;;;;;5111826;28;20162;-77
2022/01/09 01:33:43;;;;;;;9.32;5.30;;;-4.60;99.90;;;;;;5112417;28;20191;-77
2022/01/09 01:36:09;;;;;;;11.10;6.40;;;-4.60;99.90;;;;;;5112118;28;20166;-78
2022/01/09 01:38:35;;;;;;;8.63;5.03;;;-4.60;99.90;;;;;;5112388;28;20174;-76
2022/01/09 01:41:01;;;;;;;17.75;5.53;;;-4.50;99.90;;;;;;5130636;28;20159;-77
2022/01/09 01:43:27;;;;;;;10.98;6.88;;;-4.50;99.90;;;;;;5130921;28;20186;-78
2022/01/09 01:45:53;;;;;;;9.75;5.25;;;-4.40;99.90;;;;;;5130485;28;20186;-78
2022/01/09 01:48:19;;;;;;;6.43;4.95;;;-4.40;99.90;;;;;;5130489;28;20169;-78
2022/01/09 01:50:46;;;;;;;11.93;5.57;;;-4.20;99.90;;;;;;5130460;28;20161;-78
2022/01/09 01:53:17;;;;;;;11.40;5.47;;;-4.20;99.90;;;;;;5130424;28;20208;-78
2022/01/09 01:55:45;;;;;;;10.73;5.68;;;-4.20;99.90;;;;;;5111988;28;20171;-78
2022/01/09 01:58:11;;;;;;;9.18;6.43;;;-4.20;99.90;;;;;;5130202;28;20178;-77
2022/01/09 02:00:39;;;;;;;10.60;6.68;;;-4.20;99.90;;;;;;5112050;28;20167;-77
2022/01/09 02:03:06;;;;;;;13.88;7.57;;;-4.20;99.90;;;;;;5130233;28;20189;-78
2022/01/09 02:05:32;;;;;;;12.93;7.47;;;-4.30;99.90;;;;;;5129929;28;20179;-77
2022/01/09 02:08:00;;;;;;;15.15;8.63;;;-4.40;99.90;;;;;;5111189;28;20166;-78
2022/01/09 02:10:26;;;;;;;14.63;8.10;;;-4.40;99.90;;;;;;5129981;28;20196;-77
2022/01/09 02:12:56;;;;;;;15.73;8.52;;;-4.50;99.90;;;;;;5129991;28;20178;-76
2022/01/09 02:15:25;;;;;;;16.02;8.57;;;-4.60;99.90;;;;;;5111769;28;20174;-78
2022/01/09 02:17:51;;;;;;;15.10;7.95;;;-4.60;99.90;;;;;;5130092;28;20158;-77
2022/01/09 02:20:17;;;;;;;14.73;7.65;;;-4.60;99.90;;;;;;5129941;28;20255;-77
2022/01/09 02:22:43;;;;;;;11.10;7.47;;;-4.60;99.90;;;;;;5111798;28;20216;-77
2022/01/09 02:25:11;;;;;;;13.00;7.53;;;-4.60;99.90;;;;;;5111719;28;20209;-77
2022/01/09 02:27:37;;;;;;;13.27;6.00;;;-4.60;99.90;;;;;;5111657;28;20167;-78
2022/01/09 02:30:05;;;;;;;9.50;5.55;;;-4.60;99.90;;;;;;5129906;28;20242;-78
2022/01/09 02:32:31;;;;;;;10.18;6.15;;;-4.50;99.90;;;;;;5129767;28;20190;-78
2022/01/09 02:34:57;;;;;;;11.75;5.45;;;-4.50;99.90;;;;;;5111564;28;20162;-78
2022/01/09 02:37:23;;;;;;;11.00;5.78;;;-4.50;99.90;;;;;;5130025;28;20154;-78
2022/01/09 02:39:49;;;;;;;8.80;6.30;;;-4.60;99.90;;;;;;5111626;28;20170;-78
2022/01/09 02:42:25;;;;;;;8.55;5.30;;;-4.60;99.90;;;;;;5111274;28;20205;-77
2022/01/09 02:44:52;;;;;;;11.60;7.28;;;-4.60;99.90;;;;;;5129577;28;20208;-79
2022/01/09 02:47:20;;;;;;;8.30;4.93;;;-4.70;99.90;;;;;;5129703;28;20147;-78
2022/01/09 02:49:50;;;;;;;17.75;6.80;;;-4.80;99.90;;;;;;5129834;28;20193;-77
2022/01/09 02:52:31;;;;;;;11.10;5.68;;;-4.90;99.90;;;;;;5129840;28;20182;-77
2022/01/09 02:55:10;;;;;;;17.23;5.70;;;-5.00;99.90;;;;;;5129683;28;20166;-77
2022/01/09 02:57:40;;;;;;;11.85;6.55;;;-5.00;99.90;;;;;;5129537;28;20216;-77
2022/01/09 03:00:09;;;;;;;10.88;6.22;;;-5.10;99.90;;;;;;5111236;28;20249;-77
2022/01/09 03:02:35;;;;;;;10.45;5.70;;;-5.20;99.90;;;;;;5111286;28;20279;-78
2022/01/09 03:05:03;;;;;;;11.77;6.57;;;-5.30;99.90;;;;;;5111365;28;20190;-78
2022/01/09 03:07:28;;;;;;;12.93;5.32;;;-5.30;99.90;;;;;;5111340;28;20175;-77
2022/01/09 03:09:55;;;;;;;8.10;5.85;;;-5.30;99.90;;;;;;5129467;28;20208;-78
2022/01/09 03:12:22;;;;;;;11.75;6.03;;;-5.30;99.90;;;;;;5129334;28;20185;-78
2022/01/09 03:14:48;;;;;;;8.65;5.50;;;-5.20;99.90;;;;;;5129496;28;20152;-77
2022/01/09 03:17:14;;;;;;;11.77;5.05;;;-5.20;99.90;;;;;;5129553;28;20171;-77
2022/01/09 03:19:40;;;;;;;7.55;5.40;;;-5.30;99.90;;;;;;5133418;28;20155;-77
2022/01/09 03:22:06;;;;;;;18.17;6.85;;;-5.30;99.90;;;;;;5133254;28;20222;-77
2022/01/09 03:24:32;;;;;;;9.00;5.30;;;-5.30;99.90;;;;;;5114710;28;20182;-76
2022/01/09 03:26:57;;;;;;;11.90;5.55;;;-5.30;99.90;;;;;;5133130;28;20159;-77
2022/01/09 03:29:24;;;;;;;9.70;4.82;;;-5.30;99.90;;;;;;5114917;28;20167;-77
2022/01/09 03:31:50;;;;;;;9.15;4.45;;;-5.30;99.90;;;;;;5114628;28;20174;-78
2022/01/09 03:34:15;;;;;;;7.70;4.40;;;-5.40;99.90;;;;;;5133027;28;20155;-78
2022/01/09 03:36:41;;;;;;;11.05;5.53;;;-5.40;99.90;;;;;;5114562;28;20170;-78
2022/01/09 03:39:07;;;;;;;6.65;4.28;;;-5.40;99.90;;;;;;5114541;28;20204;-78
2022/01/09 03:41:33;;;;;;;9.43;4.57;;;-5.30;99.90;;;;;;5114558;28;20171;-77
2022/01/09 03:43:59;;;;;;;7.55;4.28;;;-5.30;99.90;;;;;;5114392;28;20210;-78
2022/01/09 03:46:25;;;;;;;9.63;5.55;;;-5.30;99.90;;;;;;5132788;28;20186;-78
2022/01/09 03:48:50;;;;;;;9.07;5.63;;;-5.30;99.90;;;;;;5132801;28;20162;-77
2022/01/09 03:51:16;;;;;;;14.23;4.70;;;-5.10;99.90;;;;;;5114621;28;20181;-78
2022/01/09 03:53:43;;;;;;;10.77;4.28;;;-5.20;99.90;;;;;;5114197;28;20217;-78
2022/01/09 03:56:08;;;;;;;10.15;5.38;;;-5.20;99.90;;;;;;5114282;28;20174;-77
2022/01/09 03:58:36;;;;;;;8.07;3.97;;;-5.10;99.90;;;;;;5132351;28;20229;-78
2022/01/09 04:01:08;;;;;;;10.35;5.65;;;-5.00;99.90;;;;;;5132359;28;20167;-77
2022/01/09 04:03:35;;;;;;;10.32;5.47;;;-5.00;99.90;;;;;;5113969;28;20194;-77
2022/01/09 04:06:02;;;;;;;9.75;5.72;;;-5.00;99.90;;;;;;5132303;28;20236;-77
2022/01/09 04:08:28;;;;;;;7.07;4.88;;;-5.10;99.90;;;;;;5132384;28;20155;-77
2022/01/09 04:10:55;;;;;;;14.43;6.55;;;-5.10;99.90;;;;;;5113945;28;20162;-78
2022/01/09 04:13:21;;;;;;;10.13;6.20;;;-5.10;99.90;;;;;;5113889;28;20670;-77
2022/01/09 04:15:49;;;;;;;7.95;4.40;;;-5.10;99.90;;;;;;5132135;28;20165;-77
2022/01/09 04:18:21;;;;;;;7.07;5.18;;;-5.10;99.90;;;;;;5132084;28;20239;-77
2022/01/09 04:20:48;;;;;;;16.83;6.60;;;-5.20;99.90;;;;;;5113944;28;20167;-78
2022/01/09 04:23:16;;;;;;;8.45;6.68;;;-5.10;99.90;;;;;;5132183;28;20222;-77
2022/01/09 04:25:44;;;;;;;12.32;5.60;;;-5.20;99.90;;;;;;5132213;28;20190;-77
2022/01/09 04:28:11;;;;;;;8.20;4.72;;;-5.30;99.90;;;;;;5132137;28;20171;-77
2022/01/09 04:30:37;;;;;;;10.05;5.57;;;-5.20;99.90;;;;;;5131097;28;20163;-77
2022/01/09 04:33:03;;;;;;;8.18;5.38;;;-5.20;99.90;;;;;;5129500;27;20202;-77
2022/01/09 04:35:29;;;;;;;16.75;5.65;;;-5.20;99.90;;;;;;5113542;28;20171;-78
2022/01/09 04:37:56;;;;;;;14.57;6.00;;;-5.10;99.90;;;;;;5131965;28;20166;-79
2022/01/09 04:40:23;;;;;;;15.85;5.93;;;-5.00;99.90;;;;;;5113296;28;20231;-76
2022/01/09 04:42:55;;;;;;;14.25;6.68;;;-5.10;99.90;;;;;;5113326;28;20221;-78
2022/01/09 04:45:24;;;;;;;10.05;6.50;;;-5.10;99.90;;;;;;5131469;28;20201;-76
2022/01/09 04:47:51;;;;;;;15.00;7.05;;;-5.10;99.90;;;;;;5131454;28;20154;-76
2022/01/09 04:50:24;;;;;;;22.95;7.28;;;-5.00;99.90;;;;;;5113163;28;20194;-77
2022/01/09 04:52:53;;;;;;;12.95;6.15;;;-5.10;99.90;;;;;;5131456;28;20183;-76
2022/01/09 04:55:20;;;;;;;8.98;5.97;;;-5.00;99.90;;;;;;5131470;28;20529;-76
2022/01/09 04:57:47;;;;;;;11.85;7.03;;;-5.00;99.90;;;;;;5112475;28;20202;-77
2022/01/09 05:00:13;;;;;;;12.93;6.57;;;-4.90;99.90;;;;;;5131151;28;20222;-78
2022/01/09 05:02:38;;;;;;;12.75;5.85;;;-4.90;99.90;;;;;;5131279;28;20159;-77
2022/01/09 05:05:06;;;;;;;8.65;5.10;;;-4.90;99.90;;;;;;5112802;28;20281;-77
2022/01/09 05:07:32;;;;;;;12.18;6.72;;;-4.90;99.90;;;;;;5131217;28;20197;-76
2022/01/09 05:09:58;;;;;;;8.60;5.43;;;-4.90;99.90;;;;;;5131036;28;20151;-77
2022/01/09 05:12:24;;;;;;;9.10;5.60;;;-4.80;99.90;;;;;;5112725;28;20178;-76
2022/01/09 05:14:50;;;;;;;9.90;6.00;;;-4.90;99.90;;;;;;5131041;28;20159;-76
2022/01/09 05:17:16;;;;;;;11.95;6.25;;;-4.90;99.90;;;;;;5130883;28;20187;-76
2022/01/09 05:19:42;;;;;;;12.20;5.20;;;-4.90;99.90;;;;;;5112496;28;20167;-77
2022/01/09 05:22:09;;;;;;;9.63;6.18;;;-4.90;99.90;;;;;;5130823;28;20174;-76
2022/01/09 05:24:35;;;;;;;9.40;4.47;;;-4.90;99.90;;;;;;5130910;28;20163;-76
2022/01/09 05:27:02;;;;;;;13.30;5.75;;;-4.90;99.90;;;;;;5130789;28;20241;-76
2022/01/09 05:29:28;;;;;;;9.32;4.70;;;-4.80;99.90;;;;;;5130644;28;20187;-76
2022/01/09 05:31:53;;;;;;;7.22;4.35;;;-4.80;99.90;;;;;;5130762;28;20158;-76
2022/01/09 05:34:19;;;;;;;12.18;5.07;;;-4.90;99.90;;;;;;5130646;28;20529;-76
2022/01/09 05:36:45;;;;;;;9.07;5.40;;;-4.90;99.90;;;;;;5130608;28;20651;-77
2022/01/09 05:39:11;;;;;;;8.27;4.10;;;-4.90;99.90;;;;;;5130360;28;20194;-77
2022/01/09 05:41:40;;;;;;;5.85;4.20;;;-4.80;99.90;;;;;;5111975;28;20174;-76
2022/01/09 05:44:06;;;;;;;7.05;3.28;;;-4.80;99.90;;;;;;5112051;28;20178;-76
2022/01/09 05:46:31;;;;;;;4.03;2.92;;;-4.70;99.90;;;;;;5112081;28;20196;-76
2022/01/09 05:48:57;;;;;;;7.68;4.40;;;-4.60;99.90;;;;;;5130410;28;20186;-76
2022/01/09 05:51:23;;;;;;;6.32;4.50;;;-4.40;99.90;;;;;;5111998;28;20159;-76
2022/01/09 05:53:49;;;;;;;7.22;4.80;;;-4.20;99.90;;;;;;5130297;28;20159;-77
2022/01/09 05:56:15;;;;;;;13.73;4.85;;;-4.10;99.90;;;;;;5111886;28;20230;-77
2022/01/09 05:58:41;;;;;;;6.47;3.70;;;-4.10;99.90;;;;;;5111633;28;20250;-77
2022/01/09 06:01:07;;;;;;;5.25;3.63;;;-4.20;99.90;;;;;;5129931;28;20163;-77
2022/01/09 06:03:34;;;;;;;5.28;3.33;;;-4.10;99.90;;;;;;5130019;28;20162;-77
2022/01/09 06:06:00;;;;;;;5.20;3.55;;;-4.10;99.90;;;;;;5111801;28;20220;-76
2022/01/09 06:08:26;;;;;;;5.40;3.50;;;-4.00;99.90;;;;;;5130008;28;20198;-77
2022/01/09 06:10:53;;;;;;;5.00;3.22;;;-4.00;99.90;;;;;;5129891;28;20214;-77
2022/01/09 06:13:18;;;;;;;4.28;3.75;;;-3.90;99.90;;;;;;5111673;28;20158;-77
2022/01/09 06:15:45;;;;;;;9.20;3.63;;;-3.90;99.90;;;;;;5129997;28;20189;-77
2022/01/09 06:18:12;;;;;;;5.47;3.30;;;-3.90;99.90;;;;;;5129830;28;20239;-77
2022/01/09 06:20:39;;;;;;;5.22;3.72;;;-3.90;99.90;;;;;;5129807;28;20234;-77
2022/01/09 06:23:04;;;;;;;7.95;3.58;;;-3.80;99.90;;;;;;5129948;28;20182;-77
2022/01/09 06:25:30;;;;;;;16.83;8.50;;;-3.80;99.90;;;;;;5111436;28;20624;-77
2022/01/09 06:27:56;;;;;;;11.48;6.35;;;-3.70;99.90;;;;;;5111303;28;20201;-77
2022/01/09 06:30:22;;;;;;;14.63;6.32;;;-3.70;99.90;;;;;;5129612;28;20161;-78
2022/01/09 06:32:48;;;;;;;8.60;5.40;;;-3.70;99.90;;;;;;5111444;28;20165;-77
2022/01/09 06:35:14;;;;;;;16.20;6.00;;;-3.70;99.90;;;;;;5129833;28;20204;-77
2022/01/09 06:37:40;;;;;;;13.05;4.88;;;-3.70;99.90;;;;;;5129424;28;20198;-77
2022/01/09 06:40:07;;;;;;;7.35;3.85;;;-3.60;99.90;;;;;;5129623;28;20159;-76
2022/01/09 06:42:33;;;;;;;21.30;9.70;;;-3.50;99.90;;;;;;5111354;28;20198;-77
2022/01/09 06:44:59;;;;;;;13.18;7.60;;;-3.50;99.90;;;;;;5129483;28;20201;-77
2022/01/09 06:47:25;;;;;;;11.60;7.25;;;-3.50;99.90;;;;;;5129561;28;20158;-82
2022/01/09 06:49:51;;;;;;;11.45;6.47;;;-3.50;99.90;;;;;;5103064;28;20176;-75
2022/01/09 06:52:17;;;;;;;16.48;6.10;;;-3.50;99.90;;;;;;5126058;27;20234;-77
2022/01/09 06:54:43;;;;;;;14.82;7.18;;;-3.50;99.90;;;;;;5143705;27;20191;-77
2022/01/09 06:57:09;;;;;;;15.90;6.85;;;-3.50;99.90;;;;;;5130082;27;20287;-77
2022/01/09 06:59:34;;;;;;;16.15;6.47;;;-3.40;99.90;;;;;;5153732;27;20917;-77
2022/01/09 07:02:00;;;;;;;9.48;6.25;;;-3.40;99.90;;;;;;5135464;27;20178;-77
2022/01/09 07:04:26;;;;;;;7.63;6.60;;;-3.40;99.90;;;;;;5153914;27;20150;-77
2022/01/09 07:06:52;;;;;;;12.35;6.03;;;-3.40;99.90;;;;;;5135309;27;20630;-77
2022/01/09 07:09:17;;;;;;;10.48;6.53;;;-3.30;99.90;;;;;;5138845;27;20198;-77
2022/01/09 07:11:43;;;;;;;9.05;5.00;;;-3.30;99.90;;;;;;5114777;28;20162;-78
2022/01/09 07:14:09;;;;;;;8.88;5.18;;;-3.20;99.90;;;;;;5114762;28;20170;-76
2022/01/09 07:16:35;;;;;;;6.82;4.55;;;-3.10;99.90;;;;;;5114928;28;20182;-78
2022/01/09 07:19:01;;;;;;;8.65;5.35;;;-3.10;99.90;;;;;;5114778;28;20205;-78
2022/01/09 07:21:27;;;;;;;8.15;4.40;;;-3.00;99.90;;;;;;5114834;28;20166;-79
2022/01/09 07:23:53;;;;;;;8.73;4.47;;;-3.00;99.90;;;;;;5133138;28;20643;-76
2022/01/09 07:26:19;;;;;;;9.07;4.53;;;-3.00;99.90;;;;;;5132949;28;20190;-76
2022/01/09 07:28:45;;;;;;;7.97;4.93;;;-2.90;99.90;;;;;;5113918;28;20202;-77
2022/01/09 07:31:11;;;;;;;11.40;6.00;;;-2.80;99.90;;;;;;5114458;28;20173;-76
2022/01/09 07:33:36;;;;;;;7.18;4.93;;;-2.80;99.90;;;;;;5114500;28;20163;-76
2022/01/09 07:36:02;;;;;;;8.32;5.53;;;-2.80;99.90;;;;;;5114418;28;20189;-78
2022/01/09 07:38:28;;;;;;;16.85;7.47;;;-2.80;99.90;;;;;;5114452;28;20229;-77
2022/01/09 07:40:55;;;;;;;13.40;6.57;;;-2.90;99.90;;;;;;5132691;28;20158;-77
2022/01/09 07:43:20;;;;;;;15.88;6.18;;;-2.80;99.90;;;;;;5132660;28;20217;-77
2022/01/09 07:45:46;;;;;;;18.90;7.22;;;-2.70;99.90;;;;;;5118226;28;20212;-76
2022/01/09 07:48:12;;;;;;;10.30;7.03;;;-2.70;99.90;;;;;;5094007;28;20191;-77
2022/01/09 07:50:38;;;;;;;15.70;6.63;;;-2.70;99.90;;;;;;5119869;28;20163;-77
2022/01/09 07:53:05;;;;;;;9.77;6.18;;;-2.70;99.90;;;;;;5114170;28;20163;-78
2022/01/09 07:55:31;;;;;;;9.38;6.50;;;-2.70;99.90;;;;;;5121345;28;20172;-78
2022/01/09 07:57:57;;;;;;;12.20;7.95;;;-2.60;99.90;;;;;;5111975;28;20194;-78
2022/01/09 08:00:23;;;;;;;17.25;9.10;;;-2.60;99.90;;;;;;5111721;28;20230;-77
2022/01/09 08:02:51;;;;;;;17.48;9.80;;;-2.70;99.90;;;;;;5102332;28;20189;-78
2022/01/09 08:05:18;;;;;;;24.35;11.15;;;-2.60;99.90;;;;;;5131936;28;20285;-78
2022/01/09 08:07:44;;;;;;;21.67;12.90;;;-2.60;99.90;;;;;;5114018;28;20195;-77
2022/01/09 08:10:11;;;;;;;13.55;8.48;;;-2.70;99.90;;;;;;5110882;28;20173;-78
2022/01/09 08:12:37;;;;;;;19.52;9.73;;;-2.70;99.90;;;;;;5131498;28;20171;-78
2022/01/09 08:15:04;;;;;;;15.70;10.30;;;-2.60;99.90;;;;;;5111932;28;20174;-77
2022/01/09 08:17:30;;;;;;;10.95;7.18;;;-2.50;99.90;;;;;;5131712;28;20202;-77
2022/01/09 08:19:56;;;;;;;16.15;7.57;;;-2.30;99.90;;;;;;5132004;28;20158;-78
2022/01/09 08:22:28;;;;;;;17.35;8.68;;;-2.20;99.90;;;;;;5132043;28;20608;-77
2022/01/09 08:24:54;;;;;;;15.70;8.32;;;-2.20;99.90;;;;;;5115384;28;20259;-78
2022/01/09 08:27:20;;;;;;;20.42;11.30;;;-2.10;99.90;;;;;;5111272;28;20167;-77
2022/01/09 08:29:46;;;;;;;21.23;9.30;;;-2.00;99.90;;;;;;5093280;28;20175;-77
2022/01/09 08:32:13;;;;;;;18.80;9.73;;;-1.80;99.90;;;;;;5111448;28;20160;-76
2022/01/09 08:34:40;;;;;;;14.43;8.75;;;-1.80;99.90;;;;;;5114361;28;20178;-76
2022/01/09 08:37:12;;;;;;;12.25;6.78;;;-1.70;99.90;;;;;;5103389;28;20195;-77
2022/01/09 08:39:39;;;;;;;18.25;10.32;;;-1.50;99.90;;;;;;5111853;28;20171;-79
2022/01/09 08:42:05;;;;;;;14.13;8.50;;;-1.50;99.90;;;;;;5112969;28;20209;-78
2022/01/09 08:44:31;;;;;;;13.70;7.40;;;-1.40;99.90;;;;;;5131523;28;20151;-76
2022/01/09 08:46:57;;;;;;;13.32;6.80;;;-1.30;99.90;;;;;;5125284;28;20202;-79
2022/01/09 08:49:23;;;;;;;13.65;7.72;;;-0.90;99.90;;;;;;5131466;28;20166;-78
2022/01/09 08:51:49;;;;;;;9.90;6.68;;;-0.70;99.90;;;;;;5131575;28;20182;-78
2022/01/09 08:54:15;;;;;;;16.98;6.97;;;-0.50;99.90;;;;;;5121403;28;20171;-77
2022/01/09 08:56:41;;;;;;;16.48;7.45;;;-0.40;99.90;;;;;;5111634;28;20574;-76
2022/01/09 08:59:07;;;;;;;17.45;8.10;;;-0.20;99.90;;;;;;5111602;28;20229;-80
2022/01/09 09:01:32;;;;;;;12.27;7.95;;;0.10;99.90;;;;;;5118279;28;20238;-77
2022/01/09 09:03:58;;;;;;;13.60;7.75;;;0.40;99.90;;;;;;5108069;28;20171;-77
2022/01/09 09:06:24;;;;;;;17.02;7.70;;;0.80;99.90;;;;;;5120844;28;20552;-77
2022/01/09 09:08:50;;;;;;;16.13;8.70;;;0.80;99.90;;;;;;5112458;28;20221;-79
2022/01/09 09:11:16;;;;;;;19.25;8.68;;;1.20;99.90;;;;;;5112796;28;20226;-80
2022/01/09 09:13:42;;;;;;;17.25;8.65;;;1.50;99.90;;;;;;5131083;28;20647;-78
2022/01/09 09:16:09;;;;;;;17.45;8.77;;;1.90;99.90;;;;;;5112198;28;20166;-78
2022/01/09 09:18:36;;;;;;;12.32;7.85;;;2.20;99.90;;;;;;5130945;28;20190;-78
2022/01/09 09:21:03;;;;;;;15.75;9.40;;;2.30;99.90;;;;;;5131083;28;20174;-79
2022/01/09 09:23:29;;;;;;;14.95;7.47;;;2.20;99.90;;;;;;5119995;28;20171;-78
2022/01/09 09:25:55;;;;;;;12.55;8.00;;;2.10;99.90;;;;;;5112736;28;20186;-78
2022/01/09 09:28:20;;;;;;;11.70;6.53;;;2.50;99.90;;;;;;5107041;28;20199;-78
2022/01/09 09:30:46;;;;;;;11.13;6.75;;;2.80;99.90;;;;;;5097369;28;20175;-81
2022/01/09 09:33:12;;;;;;;10.95;6.45;;;3.40;99.90;;;;;;5108967;28;20166;-80
2022/01/09 09:35:38;;;;;;;14.93;7.03;;;3.20;99.90;;;;;;5113618;28;20188;-80
2022/01/09 09:38:05;;;;;;;17.27;7.03;;;3.10;99.90;;;;;;5103961;28;20358;-80
2022/01/09 09:40:32;;;;;;;10.95;7.22;;;3.00;99.90;;;;;;5117148;28;20182;-81
2022/01/09 09:42:58;;;;;;;19.35;8.10;;;2.90;99.90;;;;;;5130462;28;20253;-81
2022/01/09 09:45:25;;;;;;;16.05;6.88;;;2.60;99.90;;;;;;5115016;28;20218;-82
2022/01/09 09:47:52;;;;;;;12.70;6.80;;;2.50;99.90;;;;;;5113900;28;20186;-82
2022/01/09 09:50:20;;;;;;;21.20;7.97;;;2.20;99.90;;;;;;5127321;28;20622;-79
2022/01/09 09:52:48;;;;;;;10.52;6.10;;;2.20;99.90;;;;;;5121312;28;20163;-80
2022/01/09 09:55:15;;;;;;;13.00;7.20;;;2.00;99.90;;;;;;5111825;28;20167;-76
2022/01/09 09:57:42;;;;;;;10.27;6.20;;;2.40;99.90;;;;;;5111868;28;20193;-77
2022/01/09 10:00:17;;;;;;;8.77;5.38;;;2.70;99.90;;;;;;5111648;28;20214;-77
2022/01/09 10:02:44;;;;;;;11.82;6.65;;;3.10;99.90;;;;;;5130166;28;20158;-80
2022/01/09 10:05:12;;;;;;;11.00;6.72;;;3.30;99.90;;;;;;5110035;28;20205;-79
2022/01/09 10:07:38;;;;;;;12.20;5.93;;;3.60;99.90;;;;;;5120117;28;20202;-80
2022/01/09 10:10:09;;;;;;;10.52;6.40;;;3.90;99.90;;;;;;5110835;28;20190;-77
2022/01/09 10:12:36;;;;;;;11.57;6.45;;;4.40;99.90;;;;;;5112140;28;20166;-78
2022/01/09 10:15:08;;;;;;;20.02;8.27;;;4.50;99.90;;;;;;5130324;28;20155;-79
2022/01/09 10:17:35;;;;;;;19.70;6.95;;;5.00;99.90;;;;;;5112440;28;20198;-79
2022/01/09 10:20:13;;;;;;;11.00;6.97;;;5.10;99.90;;;;;;5114633;28;20175;-79
2022/01/09 10:22:54;;;;;;;17.08;8.05;;;5.50;99.90;;;;;;5093234;28;20183;-80
2022/01/09 10:25:30;;;;;;;12.93;7.45;;;5.30;99.90;;;;;;5109159;28;20681;-77
2022/01/09 10:28:07;;;;;;;14.73;7.05;;;4.80;99.90;;;;;;5111262;28;20200;-78
2022/01/09 10:30:35;;;;;;;10.77;6.25;;;5.70;99.90;;;;;;5112145;28;20177;-79
2022/01/09 10:33:08;;;;;;;12.23;7.45;;;6.20;99.90;;;;;;5111441;28;20185;-80
2022/01/09 10:35:34;;;;;;;15.63;7.90;;;6.30;99.90;;;;;;5110195;28;20162;-80
2022/01/09 10:38:23;;;;;;;20.65;8.52;;;6.30;99.90;;;;;;5109082;28;20183;-79
2022/01/09 10:40:54;;;;;;;14.07;7.63;;;6.00;99.90;;;;;;5092596;28;20247;-78
2022/01/09 10:43:23;;;;;;;8.85;6.93;;;6.50;99.90;;;;;;5109742;28;20156;-79
2022/01/09 10:45:58;;;;;;;12.82;7.88;;;6.30;99.90;;;;;;5108519;28;20203;-79
2022/01/09 10:48:26;;;;;;;18.90;8.40;;;6.40;99.90;;;;;;5108288;28;20570;-79
2022/01/09 10:50:54;;;;;;;14.10;7.82;;;6.40;99.90;;;;;;5091318;28;20163;-80
2022/01/09 10:53:25;;;;;;;11.65;8.00;;;6.30;99.90;;;;;;5110464;28;20155;-79
2022/01/09 10:56:09;;;;;;;17.38;7.68;;;6.30;99.90;;;;;;5111637;28;20155;-80
2022/01/09 10:58:44;;;;;;;19.73;6.82;;;6.40;99.90;;;;;;5106680;28;20221;-78
2022/01/09 11:01:20;;;;;;;16.08;7.47;;;6.60;99.90;;;;;;5125981;28;20167;-77
2022/01/09 11:03:55;;;;;;;11.32;7.68;;;6.70;99.90;;;;;;5093592;28;20205;-78
2022/01/09 11:06:23;;;;;;;9.63;6.20;;;6.60;99.90;;;;;;5127162;28;20196;-78
2022/01/09 11:08:50;;;;;;;10.07;6.60;;;6.80;99.90;;;;;;5093505;28;20197;-79
2022/01/09 11:11:26;;;;;;;16.50;7.45;;;7.00;99.90;;;;;;5109286;28;20159;-79
2022/01/09 11:13:54;;;;;;;13.77;7.18;;;6.70;99.90;;;;;;5106243;28;20174;-80
2022/01/09 11:19:15;;;;;;;11.25;6.88;;;6.30;99.90;;;;;;5109656;28;20203;-79
2022/01/09 11:21:42;;;;;;;13.65;6.75;;;6.50;99.90;;;;;;5123312;28;20253;-83
2022/01/09 11:24:11;;;;;;;14.73;8.18;;;6.80;99.90;;;;;;5119567;28;20207;-76
2022/01/09 11:26:55;;;;;;;12.73;7.03;;;6.40;99.90;;;;;;5106362;28;20258;-80
2022/01/09 11:29:40;;;;;;;16.00;7.15;;;6.60;99.90;;;;;;5116214;28;20217;-79
2022/01/09 11:32:45;;;;;;;13.82;7.22;;;5.50;99.90;;;;;;5089996;28;20171;-81
2022/01/09 11:35:31;;;;;;;11.77;7.00;;;4.50;99.90;;;;;;5115770;28;20174;-81
2022/01/09 11:38:21;;;;;;;18.70;7.55;;;4.10;99.90;;;;;;5112859;28;20222;-80
2022/01/09 11:40:48;;;;;;;10.98;6.55;;;4.00;99.90;;;;;;5139808;27;20166;-81
2022/01/09 11:43:16;;;;;;;11.98;6.93;;;3.90;99.90;;;;;;5153134;27;20241;-79
2022/01/09 11:45:46;;;;;;;14.77;7.07;;;3.20;99.90;;;;;;5132003;27;20224;-77
2022/01/09 11:48:37;;;;;;;12.63;7.05;;;3.00;99.90;;;;;;5130065;27;20189;-77
2022/01/09 11:51:05;;;;;;;8.77;6.05;;;2.50;99.90;;;;;;5133929;27;20170;-77
2022/01/09 11:54:09;;;;;;;9.40;6.35;;;2.50;99.90;;;;;;5126864;27;20159;-79
2022/01/09 11:56:53;;;;;;;13.02;6.13;;;2.70;99.90;;;;;;5047612;28;20188;-80
2022/01/09 11:59:22;;;;;;;14.35;6.38;;;2.40;99.90;;;;;;5042605;28;20245;-78
2022/01/09 12:01:50;;;;;;;9.45;6.45;;;2.50;99.90;;;;;;5026143;28;20167;-76
2022/01/09 12:04:45;;;;;;;8.10;5.60;;;2.60;99.90;;;;;;5012926;28;20603;-80
2022/01/09 12:07:13;;;;;;;10.73;5.75;;;2.50;99.90;;;;;;5043242;28;20213;-78
2022/01/09 12:09:47;;;;;;;9.10;6.07;;;2.50;99.90;;;;;;5047376;28;20714;-75
2022/01/09 12:12:34;;;;;;;6.78;5.53;;;2.60;99.90;;;;;;5032268;28;20196;-76
2022/01/09 12:15:02;;;;;;;10.48;6.63;;;2.40;99.90;;;;;;5061186;28;20169;-78
2022/01/09 12:17:37;;;;;;;15.07;7.18;;;2.40;99.90;;;;;;5031791;28;20224;-79
2022/01/09 12:20:07;;;;;;;10.20;5.97;;;2.40;99.90;;;;;;5030296;28;20262;-79
2022/01/09 12:22:43;;;;;;;8.95;6.07;;;2.40;99.90;;;;;;5031775;28;20189;-79
2022/01/09 12:25:26;;;;;;;9.27;5.88;;;2.30;99.90;;;;;;5029693;28;20273;-79
2022/01/09 12:28:17;;;;;;;16.27;7.18;;;2.30;99.90;;;;;;5041537;28;20190;-81
2022/01/09 12:30:55;;;;;;;15.23;8.45;;;2.30;99.90;;;;;;5037774;28;20419;-81
2022/01/09 12:33:34;;;;;;;16.15;6.63;;;2.60;99.90;;;;;;5123362;28;20194;-81
2022/01/09 12:36:07;;;;;;;9.60;6.40;;;2.80;99.90;;;;;;5113248;28;20167;-81
2022/01/09 12:38:50;;;;;;;11.25;6.35;;;2.80;99.90;;;;;;5131593;27;20515;-79
2022/01/09 12:41:20;;;;;;;11.57;5.85;;;2.60;99.90;;;;;;5133985;27;20174;-82
2022/01/09 12:43:47;;;;;;;7.70;5.68;;;2.70;99.90;;;;;;5153139;27;20194;-81
2022/01/09 12:46:17;;;;;;;11.15;7.03;;;2.90;99.90;;;;;;5151779;27;20184;-78
2022/01/09 12:48:58;;;;;;;10.57;5.85;;;3.00;99.90;;;;;;5151614;27;20179;-78
2022/01/09 12:51:25;;;;;;;8.55;5.63;;;3.00;99.90;;;;;;5132435;27;20177;-78